sim
Sign-in with your pilot id or email,
or register
Callsign
Passwort

Schedule Details

Flight Number: RYR1246 (1)
Departure: Athens Eleftherios Venizelos (LGAV) at 15:35
Arrival: Bratislava M. R. Stefanik Airport (LZIB) at 17:50
Route: Ryanair Passenger Schedule. Enter filed route here before submitting Pirep.

Weather Information
Getting current METAR information for LGAV 231950Z 01010KT CAVOK 19/08 Q1019 NOSIG
Getting current METAR information for LZIB 232000Z 05007KT CAVOK 13/10 Q1017

Schedule Frequency

Route Map